Terminal Aerodrome Forecast
Issued by NWS

Home | Current Version | Previous Version | Text Only | Print | Product List | Glossary On
Versions: 1 2 3 4 5 6 7 8 9 10 11 12
971
FTUS44 KEPZ 250539
TAFDMN
TAF
KDMN 250539Z 2506/2606 28007KT P6SM SKC
     FM251200 09008KT P6SM FEW250
     FM251600 18006KT P6SM FEW250
     FM252000 24012G22KT P6SM SCT250=

USA.gov is the U.S. government's official web portal to all federal, state and local government web resources and services.